createdAt,value
2019-05-10T00:00:23.727Z,98.10
2019-05-10T00:03:12.001Z,98.20
2019-05-10T00:06:00.191Z,98.20
2019-05-10T00:08:45.882Z,98.40
2019-05-10T00:11:41.279Z,98.30
2019-05-10T00:14:31.621Z,98.70
2019-05-10T00:17:21.301Z,99.10
2019-05-10T00:19:52.483Z,99.30
2019-05-10T00:22:23.113Z,99.60
2019-05-10T00:25:03.982Z,99.90
2019-05-10T00:27:25.999Z,99.90
2019-05-10T00:29:56.589Z,99.90
2019-05-10T00:32:27.111Z,99.90
2019-05-10T00:34:57.686Z,99.90
2019-05-10T00:37:28.181Z,99.90
2019-05-10T00:39:58.705Z,99.90
2019-05-10T00:42:29.239Z,99.90
2019-05-10T00:45:00.045Z,99.90
2019-05-10T00:47:30.515Z,99.90
2019-05-10T00:50:02.135Z,99.90
2019-05-10T00:52:32.663Z,99.90
2019-05-10T00:55:17.687Z,99.90
2019-05-10T00:57:35.741Z,99.90
2019-05-10T01:00:06.942Z,99.90
2019-05-10T01:02:37.503Z,99.90
2019-05-10T01:05:08.211Z,99.90
2019-05-10T01:07:38.843Z,99.90
2019-05-10T01:10:09.559Z,99.90
2019-05-10T01:12:40.085Z,99.90
2019-05-10T01:15:11.200Z,99.90
2019-05-10T01:17:41.687Z,99.90
2019-05-10T01:20:12.668Z,99.90
2019-05-10T01:22:43.357Z,99.90
2019-05-10T01:25:14.077Z,99.90
2019-05-10T01:27:44.789Z,99.90
2019-05-10T01:30:15.278Z,99.90
2019-05-10T01:32:45.880Z,99.90
2019-05-10T01:35:16.313Z,99.90
2019-05-10T01:37:46.913Z,99.90
2019-05-10T01:40:18.457Z,99.90
2019-05-10T01:42:49.117Z,99.90
2019-05-10T01:45:19.678Z,99.90
2019-05-10T01:47:50.231Z,99.90
2019-05-10T01:50:20.714Z,99.90
2019-05-10T01:52:51.221Z,99.90
2019-05-10T01:55:21.681Z,99.90
2019-05-10T01:57:52.296Z,99.90
2019-05-10T02:00:22.977Z,99.90
2019-05-10T02:02:53.487Z,99.90
2019-05-10T02:05:24.054Z,99.90
2019-05-10T02:07:54.617Z,99.90
2019-05-10T02:10:25.077Z,99.90
2019-05-10T02:12:55.623Z,99.90
2019-05-10T02:15:26.168Z,99.90
2019-05-10T02:17:56.690Z,99.90
2019-05-10T02:20:27.215Z,99.90
2019-05-10T02:22:58.045Z,99.90
2019-05-10T02:25:28.508Z,99.90
2019-05-10T02:27:59.003Z,99.90
2019-05-10T02:30:29.492Z,99.90
2019-05-10T02:33:00.014Z,99.90
2019-05-10T02:35:30.522Z,99.90
2019-05-10T02:38:01.191Z,99.90
2019-05-10T02:40:31.881Z,99.90
2019-05-10T02:43:02.578Z,99.90
2019-05-10T02:45:33.039Z,99.90
2019-05-10T02:48:03.575Z,99.90
2019-05-10T02:50:34.199Z,99.90
2019-05-10T02:53:05.002Z,99.90
2019-05-10T02:55:36.278Z,99.90
2019-05-10T02:58:07.049Z,99.90
2019-05-10T03:00:41.030Z,99.90
2019-05-10T03:03:12.486Z,99.90
2019-05-10T03:05:48.434Z,99.90
2019-05-10T03:10:57.879Z,99.90
2019-05-10T03:13:31.377Z,99.90
2019-05-10T03:16:04.557Z,99.90
2019-05-10T03:18:35.011Z,99.90
2019-05-10T03:21:08.474Z,99.90
2019-05-10T03:23:38.940Z,99.90
2019-05-10T03:26:09.400Z,99.90
2019-05-10T03:28:39.889Z,99.90
2019-05-10T03:31:10.361Z,99.90
2019-05-10T03:33:40.893Z,99.90
2019-05-10T03:36:12.420Z,99.90
2019-05-10T03:38:43.530Z,99.90
2019-05-10T03:41:14.025Z,99.90
2019-05-10T03:43:44.639Z,99.90
2019-05-10T03:46:15.099Z,99.90
2019-05-10T03:48:45.953Z,99.90
2019-05-10T03:51:16.509Z,99.90
2019-05-10T03:53:47.189Z,99.90
2019-05-10T03:56:17.711Z,99.90
2019-05-10T03:58:48.265Z,99.90
2019-05-10T04:01:18.765Z,99.90
2019-05-10T04:03:49.389Z,99.90
2019-05-10T04:06:23.498Z,99.90
2019-05-10T04:08:54.218Z,99.90
2019-05-10T04:11:24.745Z,99.90
2019-05-10T04:13:55.374Z,99.90
2019-05-10T04:16:26.003Z,99.90
2019-05-10T04:18:56.565Z,99.90
2019-05-10T04:21:27.310Z,99.90
2019-05-10T04:23:57.815Z,99.90
2019-05-10T04:26:28.614Z,99.90
2019-05-10T04:28:59.159Z,99.90
2019-05-10T04:31:29.740Z,99.90
2019-05-10T04:34:00.333Z,99.90
2019-05-10T04:36:30.964Z,99.90
2019-05-10T04:39:01.521Z,99.90
2019-05-10T04:41:33.724Z,99.90
2019-05-10T04:44:04.298Z,99.90
2019-05-10T04:46:34.846Z,99.90
2019-05-10T04:49:05.356Z,99.90
2019-05-10T04:51:36.936Z,99.90
2019-05-10T04:54:07.399Z,99.90
2019-05-10T04:56:37.987Z,99.90
2019-05-10T04:59:08.713Z,99.90
2019-05-10T05:01:39.275Z,99.90
2019-05-10T05:04:09.799Z,99.90
2019-05-10T05:06:40.708Z,99.90
2019-05-10T05:09:11.213Z,99.90
2019-05-10T05:11:41.773Z,99.90
2019-05-10T05:14:12.257Z,99.90
2019-05-10T05:16:43.215Z,99.90
2019-05-10T05:19:13.708Z,99.90
2019-05-10T05:21:44.278Z,99.90
2019-05-10T05:24:17.199Z,99.90
2019-05-10T05:26:47.080Z,99.90
2019-05-10T05:29:18.591Z,99.90
2019-05-10T05:31:54.064Z,99.90
2019-05-10T05:34:21.289Z,99.90
2019-05-10T05:36:51.858Z,99.90
2019-05-10T05:39:22.352Z,99.90
2019-05-10T05:41:56.325Z,99.90
2019-05-10T05:44:25.986Z,99.90
2019-05-10T05:46:57.364Z,99.90
2019-05-10T05:49:27.842Z,99.90
2019-05-10T05:51:58.863Z,99.90
2019-05-10T05:54:29.349Z,99.90
2019-05-10T05:57:00.385Z,99.90
2019-05-10T05:59:31.217Z,99.90
2019-05-10T06:02:07.302Z,99.90
2019-05-10T06:04:34.037Z,99.90
2019-05-10T06:07:04.609Z,99.90
2019-05-10T06:09:37.773Z,99.90
2019-05-10T06:12:12.332Z,99.90
2019-05-10T06:14:43.272Z,99.90
2019-05-10T06:17:11.736Z,99.70
2019-05-10T06:19:42.228Z,99.00
2019-05-10T06:22:12.969Z,99.10
2019-05-10T06:24:46.841Z,99.80
2019-05-10T06:27:15.689Z,98.40
2019-05-10T06:29:46.358Z,97.00
2019-05-10T06:32:16.892Z,96.30
2019-05-10T06:34:47.592Z,95.00
2019-05-10T06:37:18.095Z,94.40
2019-05-10T06:39:48.741Z,95.00
2019-05-10T06:42:19.241Z,94.20
2019-05-10T06:44:49.830Z,93.80
2019-05-10T06:47:21.963Z,93.70
2019-05-10T06:49:52.808Z,93.20
2019-05-10T06:52:27.927Z,93.10
2019-05-10T06:54:58.536Z,92.30
2019-05-10T06:57:27.666Z,91.50
2019-05-10T07:00:06.115Z,90.80
2019-05-10T07:02:32.449Z,89.50
2019-05-10T07:05:02.704Z,86.10
2019-05-10T07:07:44.050Z,84.80
2019-05-10T07:10:15.743Z,85.00
2019-05-10T07:12:38.444Z,84.90
2019-05-10T07:15:09.835Z,85.30
2019-05-10T07:17:45.593Z,84.80
2019-05-10T07:20:12.863Z,84.40
2019-05-10T07:22:43.575Z,84.10
2019-05-10T07:25:14.220Z,85.10
2019-05-10T07:27:44.786Z,85.10
2019-05-10T07:30:18.317Z,82.30
2019-05-10T07:32:48.869Z,82.50
2019-05-10T07:35:19.438Z,84.40
2019-05-10T07:37:51.885Z,84.80
2019-05-10T07:40:22.098Z,84.30
2019-05-10T07:42:52.704Z,82.20
2019-05-10T07:45:25.652Z,81.20
2019-05-10T07:47:55.806Z,81.70
2019-05-10T07:50:26.579Z,81.00
2019-05-10T07:53:00.436Z,80.00
2019-05-10T07:55:31.075Z,80.10
2019-05-10T07:58:04.917Z,78.60
2019-05-10T08:00:38.052Z,77.50
2019-05-10T08:05:39.187Z,78.60
2019-05-10T08:08:09.693Z,78.60
2019-05-10T08:10:40.402Z,76.00
2019-05-10T08:13:15.304Z,75.90
2019-05-10T08:15:44.431Z,77.40
2019-05-10T08:18:15.257Z,77.30
2019-05-10T08:20:53.833Z,76.30
2019-05-10T08:23:25.792Z,75.30
2019-05-10T08:25:53.371Z,76.00
2019-05-10T08:28:31.311Z,73.60
2019-05-10T08:30:58.899Z,73.40
2019-05-10T08:38:31.851Z,64.40
2019-05-10T08:41:02.676Z,63.20
2019-05-10T08:43:38.907Z,62.90
2019-05-10T08:46:06.325Z,66.50
2019-05-10T08:48:37.969Z,66.60
2019-05-10T08:51:09.000Z,64.80
2019-05-10T08:53:41.896Z,61.90
2019-05-10T08:56:13.981Z,59.70
2019-05-10T08:58:44.765Z,62.00
2019-05-10T09:01:25.929Z,64.50
2019-05-10T09:03:55.635Z,69.90
2019-05-10T09:06:21.898Z,71.30
2019-05-10T09:08:52.800Z,73.10
2019-05-10T09:11:23.957Z,68.30
2019-05-10T09:13:57.528Z,62.70
2019-05-10T09:16:29.001Z,57.60
2019-05-10T09:18:59.371Z,56.00
2019-05-10T09:21:32.035Z,54.90
2019-05-10T09:24:06.256Z,53.10
2019-05-10T09:26:34.162Z,54.50
2019-05-10T09:29:04.933Z,53.60
2019-05-10T09:31:39.354Z,55.40
2019-05-10T09:34:07.631Z,59.70
2019-05-10T09:36:38.587Z,60.00
2019-05-10T09:39:14.479Z,59.80
2019-05-10T09:41:42.136Z,55.60
2019-05-10T09:44:13.525Z,52.70
2019-05-10T09:46:44.080Z,53.50
2019-05-10T09:49:18.393Z,53.60
2019-05-10T09:51:46.825Z,52.00
2019-05-10T09:54:18.249Z,47.70
2019-05-10T09:56:52.121Z,43.00
2019-05-10T09:59:21.089Z,44.20
2019-05-10T10:01:51.544Z,46.20
2019-05-10T10:04:22.294Z,49.10
2019-05-10T10:06:53.005Z,50.60
2019-05-10T10:09:33.670Z,50.80
2019-05-10T10:12:02.710Z,47.20
2019-05-10T10:14:38.151Z,47.40
2019-05-10T10:17:03.161Z,44.10
2019-05-10T10:19:40.241Z,45.20
2019-05-10T10:22:11.144Z,44.60
2019-05-10T10:24:41.073Z,53.00
2019-05-10T10:27:11.623Z,44.40
2019-05-10T10:29:42.113Z,43.50
2019-05-10T10:32:12.612Z,42.90
2019-05-10T10:34:43.365Z,42.90
2019-05-10T10:37:14.567Z,43.90
2019-05-10T10:39:47.664Z,45.20
2019-05-10T10:42:18.345Z,45.00
2019-05-10T10:44:49.088Z,44.20
2019-05-10T10:47:22.810Z,45.70
2019-05-10T10:49:51.834Z,43.40
2019-05-10T10:52:22.490Z,42.70
2019-05-10T10:54:52.985Z,40.70
2019-05-10T10:57:23.551Z,39.20
2019-05-10T10:59:54.039Z,37.90
2019-05-10T11:02:32.488Z,38.40
2019-05-10T11:04:56.697Z,40.60
2019-05-10T11:07:27.295Z,43.90
2019-05-10T11:10:08.371Z,46.20
2019-05-10T11:12:30.764Z,45.30
2019-05-10T11:15:01.469Z,45.10
2019-05-10T11:17:32.057Z,46.80
2019-05-10T11:20:03.500Z,42.20
2019-05-10T11:22:34.030Z,40.80
2019-05-10T11:25:09.446Z,32.70
2019-05-10T11:27:36.906Z,35.90
2019-05-10T11:30:07.701Z,38.00
2019-05-10T11:32:38.172Z,40.90
2019-05-10T11:35:11.819Z,42.60
2019-05-10T11:37:45.381Z,48.80
2019-05-10T11:40:18.139Z,56.20
2019-05-10T11:42:50.873Z,60.20
2019-05-10T11:47:54.378Z,68.80
2019-05-10T11:52:56.915Z,67.30
2019-05-10T11:55:27.738Z,68.20
2019-05-10T11:58:03.264Z,68.50
2019-05-10T11:59:03.714Z,71.50
2019-05-10T12:03:08.888Z,74.00
2019-05-10T12:10:33.827Z,79.10
2019-05-10T12:15:36.619Z,78.10
2019-05-10T12:18:07.269Z,78.80
2019-05-10T12:20:51.035Z,78.00
2019-05-10T12:23:13.494Z,74.80
2019-05-10T12:25:59.233Z,74.30
2019-05-10T12:26:59.195Z,78.70
2019-05-10T12:28:15.379Z,75.50
2019-05-10T12:30:47.496Z,76.40
2019-05-10T12:33:25.205Z,75.60
2019-05-10T12:35:50.981Z,75.90
2019-05-10T12:38:23.733Z,76.80
2019-05-10T12:40:53.990Z,73.30
2019-05-10T12:43:24.596Z,66.80
2019-05-10T12:45:55.228Z,63.50
2019-05-10T12:48:25.799Z,60.40
2019-05-10T12:51:02.021Z,59.90
2019-05-10T12:53:28.592Z,60.70
2019-05-10T12:55:59.224Z,57.90
2019-05-10T12:58:37.550Z,56.70
2019-05-10T13:01:08.064Z,58.10
2019-05-10T13:03:38.659Z,59.70
2019-05-10T13:06:09.237Z,62.50
2019-05-10T13:08:39.960Z,65.40
2019-05-10T13:11:10.563Z,62.30
2019-05-10T13:13:42.477Z,63.50
2019-05-10T13:16:13.079Z,63.60
2019-05-10T13:18:50.257Z,62.20
2019-05-10T13:21:20.902Z,61.00
2019-05-10T13:23:53.260Z,58.10
2019-05-10T13:26:20.571Z,57.10
2019-05-10T13:28:51.303Z,57.90
2019-05-10T13:31:21.798Z,59.50
2019-05-10T13:33:52.432Z,60.50
2019-05-10T13:36:23.170Z,62.50
2019-05-10T13:41:26.487Z,67.00
2019-05-10T13:43:58.887Z,69.90
2019-05-10T13:46:28.358Z,70.50
2019-05-10T13:48:58.879Z,71.60
2019-05-10T13:51:29.476Z,72.60
2019-05-10T13:54:00.917Z,73.90
2019-05-10T13:56:32.388Z,75.50
2019-05-10T13:59:13.605Z,76.60
2019-05-10T14:01:35.395Z,76.50
2019-05-10T14:04:06.218Z,77.80
2019-05-10T14:06:36.814Z,78.30
2019-05-10T14:09:08.327Z,79.50
2019-05-10T14:11:40.367Z,80.70
2019-05-10T14:14:14.471Z,84.00
2019-05-10T14:16:43.394Z,83.70
2019-05-10T14:19:15.830Z,86.20
2019-05-10T14:21:46.267Z,87.60
2019-05-10T14:24:16.896Z,89.40
2019-05-10T14:26:51.532Z,89.80
2019-05-10T14:29:19.820Z,90.60
2019-05-10T14:31:50.334Z,89.30
2019-05-10T14:34:20.903Z,88.50
2019-05-10T14:36:51.634Z,89.90
2019-05-10T14:39:22.285Z,90.60
2019-05-10T14:41:52.792Z,89.60
2019-05-10T14:44:23.590Z,88.90
2019-05-10T14:46:54.212Z,88.30
2019-05-10T14:49:24.846Z,89.40
2019-05-10T14:51:59.721Z,89.20
2019-05-10T14:54:41.524Z,87.10
2019-05-10T14:56:59.759Z,84.80
2019-05-10T14:59:30.234Z,79.30
2019-05-10T15:02:00.853Z,75.70
2019-05-10T15:04:47.310Z,76.20
2019-05-10T15:07:03.618Z,77.20
2019-05-10T15:09:34.406Z,78.90
2019-05-10T15:12:04.937Z,80.20
2019-05-10T15:14:35.567Z,80.00
2019-05-10T15:17:06.109Z,81.20
2019-05-10T15:19:36.894Z,82.00
2019-05-10T15:22:07.628Z,83.40
2019-05-10T15:24:38.398Z,83.10
2019-05-10T15:27:09.073Z,82.50
2019-05-10T15:29:39.677Z,81.50
2019-05-10T15:32:10.157Z,81.70
2019-05-10T15:34:40.941Z,82.90
2019-05-10T15:37:11.443Z,85.30
2019-05-10T15:39:42.020Z,87.00
2019-05-10T15:42:12.759Z,87.80
2019-05-10T15:44:43.389Z,86.00
2019-05-10T15:47:20.288Z,88.30
2019-05-10T15:49:47.044Z,86.90
2019-05-10T15:52:18.669Z,88.10
2019-05-10T15:54:49.283Z,87.50
2019-05-10T15:57:21.672Z,90.00
2019-05-10T15:59:56.794Z,90.20
2019-05-10T16:02:24.501Z,90.50
2019-05-10T16:04:55.068Z,92.00
2019-05-10T16:07:26.963Z,91.40
2019-05-10T16:09:57.570Z,91.90
2019-05-10T16:12:28.145Z,90.60
2019-05-10T16:14:59.690Z,91.80
2019-05-10T16:17:30.360Z,91.10
2019-05-10T16:20:02.151Z,91.30
2019-05-10T16:22:32.750Z,90.60
2019-05-10T16:25:03.272Z,90.60
2019-05-10T16:27:38.923Z,91.40
2019-05-10T16:30:11.629Z,90.90
2019-05-10T16:32:38.845Z,91.30
2019-05-10T16:35:12.793Z,91.90
2019-05-10T16:37:41.731Z,91.20
2019-05-10T16:40:13.465Z,88.00
2019-05-10T16:42:43.954Z,85.60
2019-05-10T16:45:14.692Z,84.50
2019-05-10T16:47:45.250Z,85.10
2019-05-10T16:50:15.861Z,86.30
2019-05-10T16:52:46.457Z,87.30
2019-05-10T16:55:16.987Z,85.10
2019-05-10T16:57:47.634Z,82.80
2019-05-10T17:00:19.278Z,79.10
2019-05-10T17:02:49.876Z,79.50
2019-05-10T17:05:20.426Z,81.30
2019-05-10T17:07:53.826Z,81.40
2019-05-10T17:10:26.952Z,79.30
2019-05-10T17:12:59.482Z,79.10
2019-05-10T17:15:27.716Z,79.30
2019-05-10T17:17:58.353Z,79.80
2019-05-10T17:20:29.018Z,80.60
2019-05-10T17:23:07.637Z,80.10
2019-05-10T17:25:35.531Z,79.70
2019-05-10T17:28:04.083Z,78.60
2019-05-10T17:30:34.667Z,78.70
2019-05-10T17:33:06.060Z,76.30
2019-05-10T17:35:41.939Z,75.00
2019-05-10T17:38:14.223Z,79.70
2019-05-10T17:40:42.158Z,76.90
2019-05-10T17:43:14.286Z,77.30
2019-05-10T17:45:45.493Z,74.20
2019-05-10T17:48:16.000Z,74.00
2019-05-10T17:50:46.624Z,78.30
2019-05-10T17:53:17.224Z,74.30
2019-05-10T17:55:49.507Z,74.10
2019-05-10T17:58:20.031Z,74.90
2019-05-10T18:00:50.559Z,74.90
2019-05-10T18:03:21.160Z,75.70
2019-05-10T18:05:53.431Z,72.80
2019-05-10T18:08:23.955Z,72.60
2019-05-10T18:10:57.324Z,74.50
2019-05-10T18:13:26.654Z,74.60
2019-05-10T18:16:04.512Z,75.00
2019-05-10T18:18:35.190Z,75.80
2019-05-10T18:21:06.155Z,77.30
2019-05-10T18:23:36.827Z,77.70
2019-05-10T18:26:07.432Z,76.60
2019-05-10T18:28:38.146Z,75.00
2019-05-10T18:31:08.742Z,76.00
2019-05-10T18:33:39.457Z,76.40
2019-05-10T18:36:11.117Z,76.80
2019-05-10T18:38:41.890Z,76.10
2019-05-10T18:41:12.451Z,75.50
2019-05-10T18:43:43.025Z,76.60
2019-05-10T18:46:13.468Z,79.30
2019-05-10T18:48:44.010Z,80.50
2019-05-10T18:51:18.104Z,80.70
2019-05-10T18:53:46.807Z,81.70
2019-05-10T18:56:17.517Z,83.30
2019-05-10T18:58:48.003Z,84.90
2019-05-10T19:01:18.517Z,86.20
2019-05-10T19:03:49.045Z,85.20
2019-05-10T19:06:19.692Z,85.60
2019-05-10T19:08:50.240Z,87.80
2019-05-10T19:11:22.001Z,87.90
2019-05-10T19:13:54.124Z,86.70
2019-05-10T19:16:25.910Z,86.50
2019-05-10T19:19:01.833Z,86.90
2019-05-10T19:21:30.849Z,87.70
2019-05-10T19:24:02.390Z,88.30
2019-05-10T19:26:33.008Z,87.40
2019-05-10T19:29:05.284Z,87.80
2019-05-10T19:31:38.072Z,86.60
2019-05-10T19:34:09.269Z,87.70
2019-05-10T19:36:40.550Z,87.20
2019-05-10T19:39:11.194Z,88.60
2019-05-10T19:41:41.750Z,90.00
2019-05-10T19:44:12.332Z,90.40
2019-05-10T19:46:42.899Z,90.70
2019-05-10T19:49:15.557Z,90.50
2019-05-10T19:51:48.853Z,90.90
2019-05-10T19:54:21.343Z,91.20
2019-05-10T19:56:51.046Z,91.50
2019-05-10T19:59:21.636Z,91.50
2019-05-10T20:01:52.203Z,91.70
2019-05-10T20:04:22.808Z,91.90
2019-05-10T20:06:53.304Z,91.90
2019-05-10T20:09:24.372Z,92.00
2019-05-10T20:11:54.934Z,92.30
2019-05-10T20:14:25.428Z,92.50
2019-05-10T20:16:56.041Z,92.50
2019-05-10T20:19:26.658Z,92.50
2019-05-10T20:21:57.357Z,92.60
2019-05-10T20:24:27.898Z,92.90
2019-05-10T20:26:58.372Z,93.10
2019-05-10T20:29:28.926Z,92.90
2019-05-10T20:31:59.446Z,93.10
2019-05-10T20:34:30.040Z,93.10
2019-05-10T20:37:00.750Z,93.20
2019-05-10T20:39:31.357Z,93.30
2019-05-10T20:42:01.832Z,93.30
2019-05-10T20:44:32.423Z,93.50
2019-05-10T20:47:02.941Z,93.70
2019-05-10T20:49:33.472Z,93.60
2019-05-10T20:52:04.166Z,93.60
2019-05-10T20:54:34.653Z,94.00
2019-05-10T20:57:05.216Z,94.30
2019-05-10T20:59:35.714Z,94.40
2019-05-10T21:02:06.305Z,94.40
2019-05-10T21:04:36.855Z,94.50
2019-05-10T21:07:07.397Z,94.80
2019-05-10T21:09:37.935Z,94.60
2019-05-10T21:12:08.477Z,94.80
2019-05-10T21:14:39.040Z,95.20
2019-05-10T21:17:09.546Z,95.50
2019-05-10T21:19:40.184Z,95.50
2019-05-10T21:22:10.898Z,94.90
2019-05-10T21:24:41.435Z,95.10
2019-05-10T21:27:11.983Z,94.90
2019-05-10T21:29:42.515Z,94.40
2019-05-10T21:32:13.137Z,94.20
2019-05-10T21:34:43.703Z,94.40
2019-05-10T21:37:14.272Z,93.70
2019-05-10T21:39:45.844Z,94.30
2019-05-10T21:42:16.409Z,94.70
2019-05-10T21:44:47.008Z,94.60
2019-05-10T21:47:17.607Z,95.50
2019-05-10T21:49:48.171Z,95.50
2019-05-10T21:52:18.885Z,95.40
2019-05-10T21:54:49.443Z,95.30
2019-05-10T21:57:20.063Z,95.60
2019-05-10T21:59:50.713Z,95.90
2019-05-10T22:02:21.395Z,95.80
2019-05-10T22:04:51.954Z,95.80
2019-05-10T22:07:22.548Z,96.30
2019-05-10T22:09:53.105Z,96.40
2019-05-10T22:12:23.746Z,96.30
2019-05-10T22:14:54.389Z,96.40
2019-05-10T22:17:25.027Z,96.40
2019-05-10T22:19:55.810Z,96.60
2019-05-10T22:22:27.217Z,96.80
2019-05-10T22:24:57.831Z,96.80
2019-05-10T22:27:28.641Z,97.00
2019-05-10T22:29:59.342Z,97.00
2019-05-10T22:32:30.002Z,97.30
2019-05-10T22:35:00.513Z,97.30
2019-05-10T22:37:32.220Z,97.40
2019-05-10T22:40:02.852Z,97.60
2019-05-10T22:42:34.505Z,97.60
2019-05-10T22:45:06.010Z,97.70
2019-05-10T22:47:36.706Z,98.10
2019-05-10T22:50:07.456Z,98.10
2019-05-10T22:52:37.931Z,98.10
2019-05-10T22:55:08.635Z,98.10
2019-05-10T22:57:39.174Z,98.00
2019-05-10T23:00:10.567Z,98.20
2019-05-10T23:02:42.203Z,98.20
2019-05-10T23:05:12.881Z,98.10
2019-05-10T23:07:43.683Z,98.20
2019-05-10T23:10:14.806Z,98.40
2019-05-10T23:12:45.303Z,98.20
2019-05-10T23:15:15.960Z,98.30
2019-05-10T23:17:46.550Z,98.10
2019-05-10T23:20:17.412Z,98.10
2019-05-10T23:22:48.000Z,98.40
2019-05-10T23:25:18.649Z,98.50
2019-05-10T23:27:50.371Z,98.70
2019-05-10T23:30:21.030Z,98.80
2019-05-10T23:32:51.619Z,98.90
2019-05-10T23:35:22.181Z,99.20
2019-05-10T23:37:52.697Z,99.30
2019-05-10T23:40:23.516Z,98.90
2019-05-10T23:42:54.181Z,99.20
2019-05-10T23:45:24.706Z,99.30
2019-05-10T23:47:55.201Z,99.30
2019-05-10T23:50:25.715Z,99.30
2019-05-10T23:52:56.190Z,99.20
2019-05-10T23:55:26.674Z,99.30
2019-05-10T23:57:57.200Z,99.10
